createdAt,value
2023-05-07T00:01:59.466Z,23.77
2023-05-07T00:04:26.277Z,25.03
2023-05-07T00:06:53.252Z,24.10
2023-05-07T00:09:19.968Z,23.07
2023-05-07T00:11:46.694Z,23.60
2023-05-07T00:14:13.399Z,24.20
2023-05-07T00:16:40.107Z,24.90
2023-05-07T00:19:06.968Z,23.43
2023-05-07T00:21:33.671Z,24.80
2023-05-07T00:24:00.460Z,22.40
2023-05-07T00:26:27.171Z,24.80
2023-05-07T00:28:53.946Z,23.43
2023-05-07T00:31:21.042Z,24.90
2023-05-07T00:33:47.867Z,22.67
2023-05-07T00:36:15.332Z,22.30
2023-05-07T00:38:42.131Z,24.50
2023-05-07T00:41:08.940Z,24.70
2023-05-07T00:43:35.666Z,23.27
2023-05-07T00:46:02.912Z,23.73
2023-05-07T00:48:29.779Z,23.90
2023-05-07T00:50:57.281Z,24.23
2023-05-07T00:53:24.131Z,22.40
2023-05-07T00:55:51.276Z,24.20
2023-05-07T00:58:18.130Z,24.70
2023-05-07T01:00:44.874Z,23.60
2023-05-07T01:03:11.611Z,23.97
2023-05-07T01:05:39.268Z,22.60
2023-05-07T01:08:06.852Z,23.60
2023-05-07T01:10:33.591Z,23.93
2023-05-07T01:13:01.442Z,22.73
2023-05-07T01:15:28.512Z,24.70
2023-05-07T01:17:56.986Z,23.40
2023-05-07T01:20:24.224Z,22.67
2023-05-07T01:22:51.416Z,23.67
2023-05-07T01:25:19.061Z,23.67
2023-05-07T01:27:45.852Z,23.40
2023-05-07T01:30:13.987Z,23.10
2023-05-07T01:32:43.462Z,22.37
2023-05-07T01:35:17.986Z,22.70
2023-05-07T01:37:45.703Z,22.97
2023-05-07T01:40:12.998Z,22.60
2023-05-07T01:42:41.341Z,22.17
2023-05-07T01:45:08.716Z,22.27
2023-05-07T01:47:37.043Z,22.20
2023-05-07T01:50:06.346Z,24.40
2023-05-07T01:52:33.174Z,24.40
2023-05-07T01:54:59.943Z,22.87
2023-05-07T01:57:26.770Z,23.33
2023-05-07T01:59:53.496Z,23.20
2023-05-07T02:02:20.283Z,23.80
2023-05-07T02:04:47.080Z,25.03
2023-05-07T02:07:13.774Z,23.63
2023-05-07T02:09:40.572Z,23.23
2023-05-07T02:12:07.409Z,24.93
2023-05-07T02:14:34.183Z,23.20
2023-05-07T02:17:00.987Z,22.10
2023-05-07T02:19:27.685Z,23.77
2023-05-07T02:21:54.391Z,24.07
2023-05-07T02:24:21.318Z,24.70
2023-05-07T02:26:48.069Z,23.43
2023-05-07T02:29:14.880Z,24.60
2023-05-07T02:31:41.632Z,23.40
2023-05-07T02:34:08.397Z,23.57
2023-05-07T02:36:35.110Z,23.80
2023-05-07T02:39:01.849Z,24.83
2023-05-07T02:41:29.118Z,23.73
2023-05-07T02:43:55.847Z,24.57
2023-05-07T02:46:23.094Z,25.10
2023-05-07T02:48:49.974Z,24.40
2023-05-07T02:51:24.039Z,25.00
2023-05-07T02:53:52.138Z,23.57
2023-05-07T02:56:18.858Z,24.10
2023-05-07T02:58:45.572Z,25.77
2023-05-07T03:01:13.196Z,25.37
2023-05-07T03:03:39.933Z,25.90
2023-05-07T03:06:07.732Z,26.57
2023-05-07T03:08:34.542Z,26.17
2023-05-07T03:11:01.394Z,26.03
2023-05-07T03:13:28.348Z,26.53
2023-05-07T03:15:55.376Z,27.63
2023-05-07T03:18:22.280Z,26.10
2023-05-07T03:20:49.852Z,27.77
2023-05-07T03:23:16.588Z,27.30
2023-05-07T03:25:43.296Z,26.40
2023-05-07T03:28:10.095Z,26.90
2023-05-07T03:30:36.799Z,27.33
2023-05-07T03:33:03.617Z,26.93
2023-05-07T03:35:30.371Z,27.60
2023-05-07T03:37:57.051Z,28.10
2023-05-07T03:40:23.809Z,28.93
2023-05-07T03:42:50.702Z,27.20
2023-05-07T03:45:17.490Z,27.17
2023-05-07T03:47:44.323Z,28.80
2023-05-07T03:50:11.846Z,30.17
2023-05-07T03:52:38.759Z,30.47
2023-05-07T03:55:06.779Z,27.47
2023-05-07T03:57:33.587Z,27.60
2023-05-07T04:00:00.323Z,27.93
2023-05-07T04:02:28.241Z,27.33
2023-05-07T04:04:55.542Z,29.00
2023-05-07T04:07:22.371Z,28.40
2023-05-07T04:09:49.042Z,28.60
2023-05-07T04:12:16.327Z,30.20
2023-05-07T04:14:43.022Z,28.27
2023-05-07T04:17:11.709Z,28.70
2023-05-07T04:19:38.436Z,27.57
2023-05-07T04:22:05.338Z,31.60
2023-05-07T04:24:34.815Z,29.70
2023-05-07T04:27:01.468Z,29.47
2023-05-07T04:29:28.196Z,29.00
2023-05-07T04:31:56.775Z,30.00
2023-05-07T04:34:23.506Z,27.73
2023-05-07T04:36:50.563Z,28.53
2023-05-07T04:39:17.346Z,28.13
2023-05-07T04:41:44.139Z,28.37
2023-05-07T04:44:11.896Z,29.53
2023-05-07T04:46:38.732Z,29.20
2023-05-07T04:49:06.720Z,26.40
2023-05-07T04:51:33.732Z,29.33
2023-05-07T04:54:00.905Z,27.77
2023-05-07T04:56:30.382Z,27.43
2023-05-07T04:58:57.152Z,27.00
2023-05-07T05:01:23.920Z,27.97
2023-05-07T05:03:51.199Z,27.70
2023-05-07T05:06:17.990Z,26.40
2023-05-07T05:08:44.683Z,26.97
2023-05-07T05:11:11.491Z,26.97
2023-05-07T05:13:38.265Z,28.40
2023-05-07T05:16:05.444Z,26.10
2023-05-07T05:18:32.201Z,26.87
2023-05-07T05:20:58.921Z,26.33
2023-05-07T05:23:25.747Z,25.97
2023-05-07T05:25:57.590Z,26.33
2023-05-07T05:28:24.717Z,26.37
2023-05-07T05:30:51.722Z,24.80
2023-05-07T05:33:18.398Z,25.40
2023-05-07T05:35:45.144Z,24.93
2023-05-07T05:38:11.861Z,23.63
2023-05-07T05:40:38.598Z,24.57
2023-05-07T05:43:05.397Z,23.67
2023-05-07T05:45:32.135Z,23.27
2023-05-07T05:47:59.008Z,23.50
2023-05-07T05:50:25.929Z,23.23
2023-05-07T05:52:52.908Z,22.63
2023-05-07T05:55:19.855Z,22.93
2023-05-07T05:57:47.126Z,23.03
2023-05-07T06:00:14.583Z,22.30
2023-05-07T06:02:41.731Z,21.30
2023-05-07T06:05:08.901Z,22.30
2023-05-07T06:07:35.954Z,22.70
2023-05-07T06:10:02.852Z,22.90
2023-05-07T06:12:29.617Z,22.43
2023-05-07T06:14:56.355Z,20.60
2023-05-07T06:17:23.175Z,21.77
2023-05-07T06:19:49.925Z,21.67
2023-05-07T06:22:16.746Z,21.00
2023-05-07T06:24:43.807Z,20.57
2023-05-07T06:27:10.508Z,20.80
2023-05-07T06:29:37.214Z,20.87
2023-05-07T06:32:14.171Z,20.50
2023-05-07T06:34:41.709Z,20.30
2023-05-07T06:37:08.487Z,20.43
2023-05-07T06:39:35.436Z,20.10
2023-05-07T06:42:05.675Z,20.37
2023-05-07T06:44:32.776Z,19.77
2023-05-07T06:46:59.910Z,18.57
2023-05-07T06:49:26.718Z,20.80
2023-05-07T06:51:53.615Z,19.60
2023-05-07T06:54:21.279Z,20.50
2023-05-07T06:56:48.078Z,19.40
2023-05-07T06:59:14.963Z,19.90
2023-05-07T07:01:41.891Z,18.93
2023-05-07T07:04:08.746Z,20.00
2023-05-07T07:06:35.589Z,19.57
2023-05-07T07:09:02.339Z,19.80
2023-05-07T07:11:29.021Z,18.83
2023-05-07T07:13:55.851Z,18.30
2023-05-07T07:16:23.052Z,18.40
2023-05-07T07:18:49.955Z,19.80
2023-05-07T07:21:16.720Z,18.97
2023-05-07T07:23:43.567Z,19.30
2023-05-07T07:26:10.565Z,19.93
2023-05-07T07:28:45.309Z,18.60
2023-05-07T07:31:12.733Z,18.33
2023-05-07T07:33:39.846Z,18.10
2023-05-07T07:36:07.771Z,17.30
2023-05-07T07:38:35.210Z,19.20
2023-05-07T07:41:02.788Z,17.40
2023-05-07T07:43:29.844Z,19.10
2023-05-07T07:45:56.766Z,17.77
2023-05-07T07:48:23.570Z,18.33
2023-05-07T07:50:52.234Z,18.90
2023-05-07T07:53:19.318Z,17.23
2023-05-07T07:55:46.670Z,16.87
2023-05-07T07:58:13.487Z,17.70
2023-05-07T08:00:40.386Z,17.00
2023-05-07T08:03:08.469Z,16.97
2023-05-07T08:05:35.491Z,16.50
2023-05-07T08:08:02.245Z,16.70
2023-05-07T08:10:29.024Z,16.83
2023-05-07T08:12:55.922Z,16.83
2023-05-07T08:15:22.736Z,17.73
2023-05-07T08:17:49.535Z,15.37
2023-05-07T08:20:16.334Z,15.80
2023-05-07T08:22:43.151Z,15.87
2023-05-07T08:25:10.386Z,14.50
2023-05-07T08:27:37.134Z,15.30
2023-05-07T08:30:04.694Z,13.90
2023-05-07T08:32:31.400Z,14.40
2023-05-07T08:34:58.201Z,13.50
2023-05-07T08:37:25.015Z,13.80
2023-05-07T08:39:51.788Z,13.50
2023-05-07T08:42:19.612Z,13.17
2023-05-07T08:44:48.110Z,13.10
2023-05-07T08:47:14.945Z,13.30
2023-05-07T08:49:42.334Z,11.80
2023-05-07T08:52:10.191Z,11.90
2023-05-07T08:54:38.344Z,11.87
2023-05-07T08:57:05.328Z,12.13
2023-05-07T08:59:32.101Z,11.60
2023-05-07T09:01:58.974Z,10.87
2023-05-07T09:04:25.908Z,11.97
2023-05-07T09:06:52.824Z,11.77
2023-05-07T09:09:19.915Z,10.97
2023-05-07T09:11:46.774Z,10.80
2023-05-07T09:14:14.086Z,11.60
2023-05-07T09:16:40.984Z,12.20
2023-05-07T09:19:07.834Z,10.80
2023-05-07T09:21:35.031Z,10.17
2023-05-07T09:24:01.782Z,10.40
2023-05-07T09:26:29.319Z,10.33
2023-05-07T09:28:56.126Z,10.17
2023-05-07T09:31:24.554Z,9.83
2023-05-07T09:33:51.631Z,9.97
2023-05-07T09:36:19.210Z,9.97
2023-05-07T09:38:46.664Z,9.50
2023-05-07T09:41:14.304Z,9.63
2023-05-07T09:43:41.779Z,10.50
2023-05-07T09:46:12.957Z,10.50
2023-05-07T09:48:41.595Z,8.80
2023-05-07T09:51:35.027Z,9.00
2023-05-07T09:54:04.385Z,9.97
2023-05-07T09:56:32.463Z,8.90
2023-05-07T09:59:01.783Z,9.50
2023-05-07T10:01:29.264Z,9.50
2023-05-07T10:03:58.468Z,8.70
2023-05-07T10:06:26.619Z,8.80
2023-05-07T10:08:55.025Z,8.60
2023-05-07T10:11:23.374Z,9.00
2023-05-07T10:13:51.050Z,9.07
2023-05-07T10:16:18.919Z,9.60
2023-05-07T10:18:47.037Z,8.77
2023-05-07T10:21:21.259Z,8.60
2023-05-07T10:23:56.924Z,8.80
2023-05-07T10:26:26.086Z,8.90
2023-05-07T10:28:58.242Z,8.67
2023-05-07T10:31:45.808Z,8.90
2023-05-07T10:34:17.751Z,10.53
2023-05-07T10:36:45.502Z,10.17
2023-05-07T10:39:12.326Z,10.80
2023-05-07T10:41:40.574Z,11.37
2023-05-07T10:44:07.452Z,10.27
2023-05-07T10:46:36.458Z,10.37
2023-05-07T10:49:07.334Z,10.87
2023-05-07T10:51:35.297Z,10.00
2023-05-07T10:54:11.002Z,10.50
2023-05-07T10:56:41.556Z,10.40
2023-05-07T10:59:31.641Z,10.00
2023-05-07T11:02:07.423Z,10.57
2023-05-07T11:04:36.301Z,10.70
2023-05-07T11:07:09.562Z,9.90
2023-05-07T11:09:54.800Z,9.87
2023-05-07T11:12:40.160Z,10.77
2023-05-07T11:15:11.334Z,10.40
2023-05-07T11:17:55.629Z,9.80
2023-05-07T11:20:44.437Z,9.17
2023-05-07T11:23:33.070Z,10.63
2023-05-07T11:26:09.524Z,9.70
2023-05-07T11:28:40.981Z,9.50
2023-05-07T11:31:09.074Z,9.30
2023-05-07T11:33:36.825Z,8.87
2023-05-07T11:36:05.050Z,9.60
2023-05-07T11:38:32.157Z,8.53
2023-05-07T11:41:05.184Z,8.70
2023-05-07T11:43:36.760Z,8.40
2023-05-07T11:46:11.237Z,8.97
2023-05-07T11:48:39.141Z,9.17
2023-05-07T11:51:09.824Z,7.47
2023-05-07T11:53:38.959Z,9.40
2023-05-07T11:56:10.228Z,8.30
2023-05-07T11:58:37.744Z,8.53
2023-05-07T12:01:05.006Z,8.23
2023-05-07T12:03:35.639Z,8.47
2023-05-07T12:06:03.412Z,7.97
2023-05-07T12:08:30.396Z,8.60
2023-05-07T12:10:57.219Z,8.27
2023-05-07T12:13:27.029Z,7.37
2023-05-07T12:15:55.466Z,9.20
2023-05-07T12:18:23.868Z,8.57
2023-05-07T12:20:51.705Z,8.87
2023-05-07T12:23:18.793Z,8.50
2023-05-07T12:25:48.863Z,8.70
2023-05-07T12:28:16.664Z,9.27
2023-05-07T12:30:44.879Z,9.33
2023-05-07T12:33:12.307Z,10.30
2023-05-07T12:35:43.351Z,9.57
2023-05-07T12:38:20.385Z,9.80
2023-05-07T12:40:52.288Z,8.83
2023-05-07T12:43:30.013Z,9.20
2023-05-07T12:45:59.074Z,8.63
2023-05-07T12:48:28.080Z,8.73
2023-05-07T12:50:55.842Z,9.80
2023-05-07T12:53:25.704Z,8.63
2023-05-07T12:55:55.319Z,8.90
2023-05-07T12:58:26.027Z,9.40
2023-05-07T13:00:53.204Z,8.97
2023-05-07T13:03:34.939Z,9.83
2023-05-07T13:06:16.176Z,8.80
2023-05-07T13:08:46.135Z,8.37
2023-05-07T13:11:13.855Z,9.80
2023-05-07T13:13:42.240Z,8.30
2023-05-07T13:16:11.589Z,8.83
2023-05-07T13:18:39.870Z,8.70
2023-05-07T13:21:06.820Z,8.60
2023-05-07T13:23:33.565Z,8.80
2023-05-07T13:26:02.470Z,10.53
2023-05-07T13:28:31.264Z,9.20
2023-05-07T13:30:58.157Z,8.43
2023-05-07T13:33:25.193Z,8.80
2023-05-07T13:35:52.339Z,8.57
2023-05-07T13:38:19.219Z,8.77
2023-05-07T13:40:46.036Z,9.77
2023-05-07T13:43:12.838Z,9.73
2023-05-07T13:45:39.655Z,9.20
2023-05-07T13:48:06.643Z,10.53
2023-05-07T13:50:33.509Z,11.60
2023-05-07T13:53:00.244Z,11.00
2023-05-07T13:55:27.155Z,10.10
2023-05-07T13:58:01.434Z,10.97
2023-05-07T14:00:29.236Z,10.40
2023-05-07T14:02:57.046Z,11.67
2023-05-07T14:05:24.362Z,11.20
2023-05-07T14:07:52.988Z,10.70
2023-05-07T14:10:20.482Z,11.50
2023-05-07T14:12:48.188Z,11.30
2023-05-07T14:15:15.821Z,10.50
2023-05-07T14:17:42.970Z,10.80
2023-05-07T14:20:11.600Z,10.53
2023-05-07T14:22:38.587Z,11.60
2023-05-07T14:25:07.221Z,10.20
2023-05-07T14:27:34.398Z,9.40
2023-05-07T14:30:01.203Z,9.90
2023-05-07T14:32:27.980Z,9.30
2023-05-07T14:34:54.878Z,8.70
2023-05-07T14:37:21.724Z,10.80
2023-05-07T14:39:50.229Z,9.60
2023-05-07T14:42:18.005Z,9.23
2023-05-07T14:44:46.459Z,8.20
2023-05-07T14:47:14.273Z,7.87
2023-05-07T14:49:41.987Z,7.90
2023-05-07T14:52:11.019Z,7.90
2023-05-07T14:54:39.111Z,9.50
2023-05-07T14:57:07.519Z,9.73
2023-05-07T14:59:34.635Z,9.10
2023-05-07T15:02:03.791Z,9.17
2023-05-07T15:04:32.387Z,8.93
2023-05-07T15:06:59.116Z,8.60
2023-05-07T15:09:25.933Z,10.93
2023-05-07T15:11:53.064Z,10.70
2023-05-07T15:14:19.910Z,8.63
2023-05-07T15:16:46.870Z,8.50
2023-05-07T15:19:15.801Z,9.70
2023-05-07T15:21:43.035Z,9.37
2023-05-07T15:24:10.436Z,8.27
2023-05-07T15:26:37.409Z,8.83
2023-05-07T15:29:09.162Z,9.30
2023-05-07T15:31:36.159Z,9.20
2023-05-07T15:34:02.978Z,10.07
2023-05-07T15:36:29.784Z,10.17
2023-05-07T15:38:56.572Z,9.33
2023-05-07T15:41:23.342Z,10.23
2023-05-07T15:43:52.884Z,9.73
2023-05-07T15:46:25.425Z,9.90
2023-05-07T15:48:53.429Z,10.33
2023-05-07T15:51:21.071Z,9.90
2023-05-07T15:53:48.172Z,10.17
2023-05-07T15:56:15.288Z,10.37
2023-05-07T15:58:42.085Z,10.53
2023-05-07T16:01:09.093Z,10.30
2023-05-07T16:03:36.327Z,10.03
2023-05-07T16:06:03.301Z,10.10
2023-05-07T16:08:30.069Z,9.93
2023-05-07T16:10:56.891Z,10.80
2023-05-07T16:13:25.037Z,10.60
2023-05-07T16:16:01.058Z,10.60
2023-05-07T16:18:27.859Z,10.80
2023-05-07T16:20:54.832Z,10.97
2023-05-07T16:23:22.305Z,10.53
2023-05-07T16:25:49.941Z,11.43
2023-05-07T16:28:16.899Z,11.33
2023-05-07T16:30:44.034Z,11.40
2023-05-07T16:33:11.002Z,10.37
2023-05-07T16:35:37.766Z,10.60
2023-05-07T16:38:10.107Z,11.13
2023-05-07T16:40:40.389Z,12.63
2023-05-07T16:43:07.314Z,13.27
2023-05-07T16:45:34.358Z,12.70
2023-05-07T16:48:02.936Z,11.90
2023-05-07T16:50:29.996Z,12.43
2023-05-07T16:52:56.796Z,13.00
2023-05-07T16:55:23.867Z,12.07
2023-05-07T16:57:50.626Z,12.60
2023-05-07T17:00:18.109Z,12.00
2023-05-07T17:02:45.944Z,11.80
2023-05-07T17:05:13.046Z,12.27
2023-05-07T17:07:40.377Z,13.13
2023-05-07T17:10:07.683Z,13.20
2023-05-07T17:12:35.892Z,13.37
2023-05-07T17:15:03.531Z,12.13
2023-05-07T17:17:30.541Z,12.43
2023-05-07T17:19:57.397Z,13.20
2023-05-07T17:22:25.170Z,13.93
2023-05-07T17:24:52.239Z,13.03
2023-05-07T17:27:19.156Z,13.60
2023-05-07T17:29:46.094Z,12.70
2023-05-07T17:32:13.013Z,13.23
2023-05-07T17:34:40.040Z,12.53
2023-05-07T17:37:06.860Z,12.80
2023-05-07T17:39:33.684Z,13.43
2023-05-07T17:42:00.508Z,13.87
2023-05-07T17:44:27.287Z,12.43
2023-05-07T17:46:54.478Z,12.97
2023-05-07T17:49:21.604Z,13.60
2023-05-07T17:51:54.576Z,13.87
2023-05-07T17:54:24.224Z,13.70
2023-05-07T17:56:51.209Z,13.90
2023-05-07T17:59:18.177Z,14.13
2023-05-07T18:01:45.258Z,13.73
2023-05-07T18:04:12.125Z,14.43
2023-05-07T18:06:39.752Z,14.30
2023-05-07T18:09:06.529Z,16.60
2023-05-07T18:11:33.712Z,13.93
2023-05-07T18:14:01.066Z,14.50
2023-05-07T18:16:27.978Z,13.83
2023-05-07T18:18:55.560Z,15.60
2023-05-07T18:21:22.599Z,13.97
2023-05-07T18:23:49.679Z,15.50
2023-05-07T18:26:16.695Z,13.60
2023-05-07T18:28:43.761Z,14.63
2023-05-07T18:31:10.879Z,14.30
2023-05-07T18:33:37.702Z,15.40
2023-05-07T18:36:04.873Z,15.00
2023-05-07T18:38:32.073Z,13.80
2023-05-07T18:41:06.025Z,14.63
2023-05-07T18:43:33.950Z,14.93
2023-05-07T18:46:01.071Z,15.40
2023-05-07T18:48:28.154Z,15.37
2023-05-07T18:50:54.952Z,14.20
2023-05-07T18:53:21.815Z,14.50
2023-05-07T18:55:52.533Z,14.80
2023-05-07T18:58:20.102Z,14.82
2023-05-07T19:00:48.221Z,14.67
2023-05-07T19:03:15.911Z,15.97
2023-05-07T19:05:46.148Z,16.83
2023-05-07T19:08:13.103Z,15.93
2023-05-07T19:10:39.978Z,15.37
2023-05-07T19:13:06.857Z,15.87
2023-05-07T19:15:33.931Z,14.93
2023-05-07T19:18:00.897Z,15.00
2023-05-07T19:20:28.305Z,15.87
2023-05-07T19:22:55.260Z,15.00
2023-05-07T19:25:22.275Z,15.60
2023-05-07T19:27:50.843Z,16.00
2023-05-07T19:30:17.855Z,14.20
2023-05-07T19:32:44.695Z,15.60
2023-05-07T19:35:11.727Z,15.27
2023-05-07T19:37:39.135Z,15.17
2023-05-07T19:40:07.039Z,14.90
2023-05-07T19:42:33.973Z,14.10
2023-05-07T19:45:00.862Z,14.83
2023-05-07T19:47:27.705Z,13.73
2023-05-07T19:49:54.427Z,14.23
2023-05-07T19:52:21.322Z,15.10
2023-05-07T19:54:48.139Z,15.40
2023-05-07T19:57:17.599Z,15.00
2023-05-07T19:59:46.275Z,14.83
2023-05-07T20:02:13.143Z,13.57
2023-05-07T20:04:39.898Z,14.80
2023-05-07T20:07:06.668Z,14.63
2023-05-07T20:09:33.854Z,14.90
2023-05-07T20:12:00.841Z,15.17
2023-05-07T20:14:27.808Z,15.53
2023-05-07T20:16:54.617Z,14.90
2023-05-07T20:19:21.380Z,14.50
2023-05-07T20:21:48.550Z,15.07
2023-05-07T20:24:17.066Z,14.03
2023-05-07T20:26:43.859Z,15.23
2023-05-07T20:29:10.677Z,15.00
2023-05-07T20:31:37.636Z,14.70
2023-05-07T20:34:04.828Z,14.80
2023-05-07T20:36:31.709Z,13.90
2023-05-07T20:38:58.546Z,14.60
2023-05-07T20:41:25.515Z,15.70
2023-05-07T20:43:52.512Z,14.87
2023-05-07T20:46:22.642Z,15.40
2023-05-07T20:48:50.217Z,14.73
2023-05-07T20:51:17.074Z,14.60
2023-05-07T20:53:45.494Z,15.03
2023-05-07T20:56:14.639Z,15.13
2023-05-07T20:58:41.416Z,15.00
2023-05-07T21:01:08.253Z,16.00
2023-05-07T21:03:35.120Z,14.93
2023-05-07T21:06:03.059Z,15.33
2023-05-07T21:08:30.488Z,15.67
2023-05-07T21:10:57.246Z,15.23
2023-05-07T21:13:24.129Z,15.40
2023-05-07T21:15:51.088Z,14.33
2023-05-07T21:18:19.218Z,15.77
2023-05-07T21:20:46.051Z,14.47
2023-05-07T21:23:12.924Z,14.60
2023-05-07T21:25:41.467Z,14.83
2023-05-07T21:28:08.981Z,15.03
2023-05-07T21:30:36.790Z,15.50
2023-05-07T21:33:05.553Z,15.27
2023-05-07T21:35:34.873Z,14.97
2023-05-07T21:38:02.586Z,15.90
2023-05-07T21:40:29.610Z,14.37
2023-05-07T21:42:56.430Z,15.90
2023-05-07T21:45:23.226Z,14.90
2023-05-07T21:47:50.086Z,15.60
2023-05-07T21:50:17.316Z,14.43
2023-05-07T21:52:44.527Z,16.20
2023-05-07T21:55:11.403Z,13.70
2023-05-07T21:57:41.972Z,13.90
2023-05-07T22:00:11.586Z,15.20
2023-05-07T22:02:38.769Z,14.83
2023-05-07T22:05:06.047Z,13.97
2023-05-07T22:07:32.881Z,14.60
2023-05-07T22:09:59.674Z,14.00
2023-05-07T22:12:26.403Z,14.57
2023-05-07T22:14:53.248Z,14.80
2023-05-07T22:17:20.136Z,13.93
2023-05-07T22:19:46.925Z,14.80
2023-05-07T22:22:13.768Z,14.23
2023-05-07T22:24:40.903Z,14.33
2023-05-07T22:27:07.688Z,13.70
2023-05-07T22:29:34.368Z,13.50
2023-05-07T22:32:01.175Z,14.57
2023-05-07T22:34:28.377Z,15.07
2023-05-07T22:36:55.253Z,14.33
2023-05-07T22:39:22.029Z,13.83
2023-05-07T22:41:49.594Z,14.47
2023-05-07T22:44:16.443Z,14.70
2023-05-07T22:46:43.238Z,14.33
2023-05-07T22:49:10.158Z,15.10
2023-05-07T22:51:36.949Z,14.20
2023-05-07T22:54:03.854Z,14.00
2023-05-07T22:56:30.665Z,15.23
2023-05-07T22:58:57.409Z,13.50
2023-05-07T23:01:24.195Z,14.20
2023-05-07T23:03:50.944Z,14.10
2023-05-07T23:06:17.745Z,13.90
2023-05-07T23:08:44.484Z,13.70
2023-05-07T23:11:11.223Z,14.00
2023-05-07T23:13:37.979Z,13.80
2023-05-07T23:16:04.936Z,14.20
2023-05-07T23:18:32.594Z,15.20
2023-05-07T23:20:59.395Z,13.50
2023-05-07T23:23:33.569Z,13.67
2023-05-07T23:26:00.549Z,13.67
2023-05-07T23:28:27.300Z,14.20
2023-05-07T23:30:54.058Z,13.73
2023-05-07T23:33:20.928Z,13.83
2023-05-07T23:35:48.062Z,14.07
2023-05-07T23:38:14.810Z,13.90
2023-05-07T23:40:41.649Z,14.53
2023-05-07T23:43:08.411Z,13.17
2023-05-07T23:45:35.745Z,14.13
2023-05-07T23:48:02.543Z,13.20
2023-05-07T23:50:29.325Z,13.00
2023-05-07T23:52:56.059Z,13.30
2023-05-07T23:55:22.756Z,13.20
2023-05-07T23:57:49.878Z,13.70
